createdAt,value
2022-09-28T00:00:13.090Z,99.50
2022-09-28T00:01:13.172Z,99.50
2022-09-28T00:02:13.173Z,99.50
2022-09-28T00:03:13.301Z,99.70
2022-09-28T00:04:13.297Z,99.90
2022-09-28T00:05:13.476Z,99.90
2022-09-28T00:06:13.456Z,99.80
2022-09-28T00:07:13.366Z,99.90
2022-09-28T00:08:13.265Z,99.90
2022-09-28T00:09:13.284Z,100.00
2022-09-28T00:10:13.225Z,100.00
2022-09-28T00:11:13.341Z,100.00
2022-09-28T00:12:13.901Z,100.00
2022-09-28T00:13:13.580Z,100.00
2022-09-28T00:14:15.103Z,100.00
2022-09-28T00:15:13.248Z,100.00
2022-09-28T00:16:13.164Z,100.00
2022-09-28T00:17:13.565Z,100.00
2022-09-28T00:18:13.542Z,99.70
2022-09-28T00:19:14.001Z,99.20
2022-09-28T00:20:13.306Z,98.90
2022-09-28T00:21:14.045Z,98.60
2022-09-28T00:22:13.019Z,98.90
2022-09-28T00:23:12.991Z,98.50
2022-09-28T00:24:12.910Z,98.40
2022-09-28T00:25:13.365Z,98.30
2022-09-28T00:26:13.261Z,98.10
2022-09-28T00:27:13.435Z,98.60
2022-09-28T00:28:13.513Z,98.40
2022-09-28T00:29:13.427Z,98.70
2022-09-28T00:30:13.828Z,98.40
2022-09-28T00:31:13.868Z,98.50
2022-09-28T00:32:17.863Z,98.30
2022-09-28T00:33:13.753Z,98.40
2022-09-28T00:34:13.895Z,98.70
2022-09-28T00:35:12.873Z,98.80
2022-09-28T00:36:13.807Z,98.70
2022-09-28T00:37:13.776Z,98.10
2022-09-28T00:38:13.755Z,98.20
2022-09-28T00:39:13.858Z,98.40
2022-09-28T00:40:12.785Z,98.60
2022-09-28T00:41:13.773Z,98.60
2022-09-28T00:42:13.924Z,98.30
2022-09-28T00:43:12.885Z,98.60
2022-09-28T00:44:14.236Z,98.60
2022-09-28T00:45:13.191Z,98.50
2022-09-28T00:46:13.771Z,98.40
2022-09-28T00:47:14.091Z,97.90
2022-09-28T00:48:13.136Z,97.80
2022-09-28T00:49:13.270Z,97.60
2022-09-28T00:50:13.158Z,97.70
2022-09-28T00:51:13.368Z,97.60
2022-09-28T00:52:13.671Z,97.50
2022-09-28T00:53:13.929Z,97.70
2022-09-28T00:54:12.966Z,97.60
2022-09-28T00:55:13.143Z,97.20
2022-09-28T00:56:13.151Z,97.30
2022-09-28T00:57:13.395Z,97.20
2022-09-28T00:58:13.319Z,97.30
2022-09-28T00:59:13.369Z,97.40
2022-09-28T01:00:13.459Z,97.00
2022-09-28T01:01:13.603Z,97.10
2022-09-28T01:02:14.068Z,96.90
2022-09-28T01:03:13.539Z,97.30
2022-09-28T01:04:13.661Z,97.10
2022-09-28T01:05:13.867Z,97.20
2022-09-28T01:06:13.778Z,96.80
2022-09-28T01:07:14.079Z,96.90
2022-09-28T01:08:13.080Z,96.80
2022-09-28T01:09:13.070Z,97.00
2022-09-28T01:10:13.526Z,96.60
2022-09-28T01:11:13.507Z,96.60
2022-09-28T01:12:13.373Z,96.60
2022-09-28T01:13:13.389Z,96.70
2022-09-28T01:14:13.248Z,96.30
2022-09-28T01:15:13.190Z,96.40
2022-09-28T01:16:13.197Z,96.30
2022-09-28T01:17:13.374Z,96.30
2022-09-28T01:18:13.236Z,96.30
2022-09-28T01:19:13.164Z,96.00
2022-09-28T01:20:13.081Z,95.90
2022-09-28T01:21:13.064Z,96.00
2022-09-28T01:22:13.181Z,96.00
2022-09-28T01:23:13.493Z,95.60
2022-09-28T01:24:13.805Z,95.70
2022-09-28T01:25:13.772Z,95.70
2022-09-28T01:26:13.738Z,95.70
2022-09-28T01:27:13.574Z,96.00
2022-09-28T01:28:13.715Z,95.70
2022-09-28T01:29:14.181Z,95.60
2022-09-28T01:30:13.259Z,95.50
2022-09-28T01:31:13.377Z,95.40
2022-09-28T01:32:13.475Z,95.20
2022-09-28T01:33:13.345Z,95.20
2022-09-28T01:34:13.218Z,95.30
2022-09-28T01:35:13.161Z,95.00
2022-09-28T01:36:13.233Z,96.10
2022-09-28T01:37:13.133Z,96.80
2022-09-28T01:38:13.019Z,97.10
2022-09-28T01:39:12.976Z,97.10
2022-09-28T01:40:12.875Z,96.90
2022-09-28T01:41:13.766Z,96.90
2022-09-28T01:42:13.682Z,97.40
2022-09-28T01:43:13.915Z,97.70
2022-09-28T01:44:12.942Z,97.70
2022-09-28T01:45:13.053Z,97.70
2022-09-28T01:46:12.983Z,97.80
2022-09-28T01:47:12.894Z,97.90
2022-09-28T01:48:13.940Z,97.90
2022-09-28T01:49:13.358Z,98.20
2022-09-28T01:50:13.303Z,98.10
2022-09-28T01:51:13.199Z,98.10
2022-09-28T01:52:13.276Z,98.30
2022-09-28T01:53:13.191Z,98.20
2022-09-28T01:54:13.222Z,98.00
2022-09-28T01:55:13.109Z,98.00
2022-09-28T01:56:13.386Z,98.00
2022-09-28T01:57:13.270Z,97.60
2022-09-28T01:58:13.449Z,97.90
2022-09-28T01:59:13.807Z,97.80
2022-09-28T02:00:13.876Z,97.90
2022-09-28T02:01:13.871Z,98.10
2022-09-28T02:02:13.239Z,98.30
2022-09-28T02:03:13.449Z,98.30
2022-09-28T02:04:13.260Z,98.30
2022-09-28T02:05:13.397Z,98.30
2022-09-28T02:06:13.316Z,98.70
2022-09-28T02:07:13.498Z,98.80
2022-09-28T02:08:13.474Z,98.60
2022-09-28T02:09:13.465Z,98.70
2022-09-28T02:10:13.587Z,98.40
2022-09-28T02:11:13.574Z,98.70
2022-09-28T02:12:13.678Z,98.90
2022-09-28T02:13:13.602Z,98.90
2022-09-28T02:14:13.534Z,98.90
2022-09-28T02:15:13.410Z,98.90
2022-09-28T02:16:13.437Z,99.10
2022-09-28T02:17:13.424Z,99.10
2022-09-28T02:18:13.805Z,98.90
2022-09-28T02:19:14.356Z,98.80
2022-09-28T02:20:13.529Z,98.80
2022-09-28T02:21:13.707Z,98.80
2022-09-28T02:22:13.860Z,98.90
2022-09-28T02:23:13.864Z,98.90
2022-09-28T02:24:16.246Z,99.10
2022-09-28T02:25:13.152Z,99.20
2022-09-28T02:26:13.097Z,99.40
2022-09-28T02:27:13.058Z,99.30
2022-09-28T02:28:12.943Z,99.40
2022-09-28T02:29:12.985Z,99.70
2022-09-28T02:30:13.091Z,99.60
2022-09-28T02:31:13.371Z,99.40
2022-09-28T02:32:13.291Z,99.40
2022-09-28T02:33:13.346Z,99.30
2022-09-28T02:34:13.359Z,99.20
2022-09-28T02:35:13.278Z,98.90
2022-09-28T02:36:13.522Z,98.90
2022-09-28T02:37:13.905Z,98.90
2022-09-28T02:38:12.786Z,98.70
2022-09-28T02:39:14.028Z,98.90
2022-09-28T02:40:13.062Z,98.90
2022-09-28T02:41:13.204Z,98.80
2022-09-28T02:42:13.247Z,99.00
2022-09-28T02:43:13.522Z,98.70
2022-09-28T02:44:13.375Z,98.40
2022-09-28T02:45:13.520Z,98.60
2022-09-28T02:46:13.490Z,98.70
2022-09-28T02:47:13.530Z,98.80
2022-09-28T02:48:13.397Z,99.00
2022-09-28T02:49:21.723Z,98.60
2022-09-28T02:50:13.175Z,98.50
2022-09-28T02:51:13.295Z,98.80
2022-09-28T02:52:13.216Z,99.00
2022-09-28T02:53:13.378Z,98.70
2022-09-28T02:54:18.537Z,99.00
2022-09-28T02:55:13.822Z,98.90
2022-09-28T02:56:13.999Z,98.70
2022-09-28T02:57:13.175Z,98.80
2022-09-28T02:58:13.444Z,99.00
2022-09-28T02:59:13.546Z,98.90
2022-09-28T03:00:13.506Z,98.90
2022-09-28T03:01:13.517Z,99.00
2022-09-28T03:02:13.512Z,98.90
2022-09-28T03:03:13.713Z,98.90
2022-09-28T03:04:13.516Z,99.00
2022-09-28T03:05:13.412Z,98.80
2022-09-28T03:06:13.314Z,97.70
2022-09-28T03:07:13.228Z,98.30
2022-09-28T03:08:13.162Z,98.70
2022-09-28T03:09:13.191Z,98.80
2022-09-28T03:10:13.343Z,99.10
2022-09-28T03:11:13.561Z,99.20
2022-09-28T03:12:13.837Z,99.30
2022-09-28T03:13:13.777Z,99.40
2022-09-28T03:14:13.770Z,99.10
2022-09-28T03:15:13.643Z,98.80
2022-09-28T03:16:13.736Z,98.80
2022-09-28T03:17:13.791Z,98.80
2022-09-28T03:18:13.838Z,98.80
2022-09-28T03:19:13.863Z,98.90
2022-09-28T03:20:12.753Z,98.60
2022-09-28T03:21:13.729Z,98.50
2022-09-28T03:22:13.820Z,97.90
2022-09-28T03:23:24.634Z,97.60
2022-09-28T03:24:13.341Z,97.60
2022-09-28T03:25:13.258Z,97.80
2022-09-28T03:26:13.113Z,97.70
2022-09-28T03:27:13.429Z,97.50
2022-09-28T03:28:13.278Z,97.80
2022-09-28T03:29:13.243Z,97.90
2022-09-28T03:30:13.313Z,97.80
2022-09-28T03:31:13.255Z,97.80
2022-09-28T03:32:13.362Z,97.90
2022-09-28T03:33:13.404Z,97.90
2022-09-28T03:34:13.590Z,98.00
2022-09-28T03:35:13.554Z,97.90
2022-09-28T03:36:13.970Z,97.80
2022-09-28T03:37:13.048Z,97.70
2022-09-28T03:38:13.013Z,97.60
2022-09-28T03:39:12.978Z,97.60
2022-09-28T03:40:13.014Z,97.70
2022-09-28T03:41:12.856Z,97.70
2022-09-28T03:42:13.903Z,97.60
2022-09-28T03:43:12.956Z,97.60
2022-09-28T03:44:12.952Z,97.80
2022-09-28T03:45:13.307Z,97.70
2022-09-28T03:46:13.547Z,98.10
2022-09-28T03:47:13.557Z,98.20
2022-09-28T03:48:13.567Z,98.20
2022-09-28T03:49:13.583Z,97.90
2022-09-28T03:50:13.602Z,98.00
2022-09-28T03:51:13.596Z,98.20
2022-09-28T03:52:13.562Z,98.10
2022-09-28T03:53:13.737Z,98.40
2022-09-28T03:54:13.682Z,98.20
2022-09-28T03:55:13.896Z,98.30
2022-09-28T03:56:12.839Z,98.20
2022-09-28T03:57:13.781Z,98.00
2022-09-28T03:58:13.604Z,98.00
2022-09-28T03:59:13.588Z,97.70
2022-09-28T04:00:13.697Z,97.60
2022-09-28T04:01:16.768Z,97.80
2022-09-28T04:02:13.822Z,98.00
2022-09-28T04:03:13.946Z,97.90
2022-09-28T04:04:13.019Z,98.00
2022-09-28T04:05:12.912Z,98.10
2022-09-28T04:06:12.912Z,98.10
2022-09-28T04:07:12.791Z,98.00
2022-09-28T04:08:13.841Z,97.90
2022-09-28T04:09:13.814Z,98.00
2022-09-28T04:10:13.811Z,97.80
2022-09-28T04:11:13.695Z,97.50
2022-09-28T04:12:13.596Z,97.40
2022-09-28T04:13:13.562Z,97.50
2022-09-28T04:14:13.479Z,97.50
2022-09-28T04:15:13.485Z,97.20
2022-09-28T04:16:13.676Z,97.40
2022-09-28T04:17:13.971Z,97.20
2022-09-28T04:18:12.973Z,97.40
2022-09-28T04:19:12.879Z,97.30
2022-09-28T04:20:12.908Z,96.90
2022-09-28T04:21:13.096Z,97.10
2022-09-28T04:22:13.143Z,97.10
2022-09-28T04:23:13.109Z,96.70
2022-09-28T04:24:13.300Z,96.80
2022-09-28T04:25:13.316Z,97.20
2022-09-28T04:26:13.356Z,97.30
2022-09-28T04:27:13.446Z,97.30
2022-09-28T04:28:13.510Z,97.10
2022-09-28T04:29:13.332Z,97.10
2022-09-28T04:30:13.479Z,97.10
2022-09-28T04:31:13.546Z,97.20
2022-09-28T04:32:13.476Z,97.10
2022-09-28T04:33:14.733Z,97.30
2022-09-28T04:34:13.940Z,97.60
2022-09-28T04:35:12.892Z,97.80
2022-09-28T04:36:12.841Z,97.60
2022-09-28T04:37:14.018Z,97.50
2022-09-28T04:38:12.987Z,97.50
2022-09-28T04:39:13.291Z,97.60
2022-09-28T04:40:13.218Z,97.70
2022-09-28T04:41:13.430Z,97.40
2022-09-28T04:42:13.588Z,97.50
2022-09-28T04:43:13.841Z,97.50
2022-09-28T04:44:14.122Z,97.50
2022-09-28T04:45:18.153Z,97.60
2022-09-28T04:46:13.462Z,97.50
2022-09-28T04:47:13.563Z,97.50
2022-09-28T04:48:13.648Z,97.50
2022-09-28T04:49:13.620Z,97.60
2022-09-28T04:50:13.617Z,97.70
2022-09-28T04:51:13.638Z,97.70
2022-09-28T04:52:18.028Z,97.80
2022-09-28T04:53:13.465Z,97.90
2022-09-28T04:54:13.781Z,98.10
2022-09-28T04:55:13.783Z,98.10
2022-09-28T04:56:13.941Z,97.90
2022-09-28T04:57:12.820Z,97.80
2022-09-28T04:58:13.705Z,97.80
2022-09-28T04:59:13.754Z,97.90
2022-09-28T05:00:13.687Z,97.90
2022-09-28T05:01:14.033Z,98.00
2022-09-28T05:02:13.385Z,98.10
2022-09-28T05:03:13.295Z,98.00
2022-09-28T05:04:13.143Z,97.90
2022-09-28T05:05:12.970Z,98.10
2022-09-28T05:06:12.795Z,98.20
2022-09-28T05:07:13.923Z,98.10
2022-09-28T05:08:13.111Z,97.50
2022-09-28T05:09:13.078Z,98.20
2022-09-28T05:10:13.019Z,98.20
2022-09-28T05:11:13.070Z,98.50
2022-09-28T05:12:12.955Z,98.60
2022-09-28T05:13:13.062Z,98.60
2022-09-28T05:14:13.077Z,98.30
2022-09-28T05:15:13.223Z,98.20
2022-09-28T05:16:13.263Z,98.30
2022-09-28T05:17:13.361Z,98.90
2022-09-28T05:18:13.466Z,98.90
2022-09-28T05:19:13.510Z,99.00
2022-09-28T05:20:13.470Z,99.00
2022-09-28T05:21:13.398Z,98.70
2022-09-28T05:22:13.431Z,98.60
2022-09-28T05:23:13.328Z,98.40
2022-09-28T05:24:13.134Z,98.20
2022-09-28T05:25:12.956Z,98.10
2022-09-28T05:26:12.886Z,98.10
2022-09-28T05:27:13.909Z,98.00
2022-09-28T05:28:28.436Z,97.80
2022-09-28T05:29:13.603Z,97.50
2022-09-28T05:30:13.564Z,97.50
2022-09-28T05:31:18.776Z,98.10
2022-09-28T05:32:13.817Z,98.20
2022-09-28T05:33:13.735Z,98.60
2022-09-28T05:34:13.958Z,98.40
2022-09-28T05:35:13.136Z,98.60
2022-09-28T05:36:13.286Z,98.50
2022-09-28T05:37:18.936Z,98.60
2022-09-28T05:38:12.982Z,98.30
2022-09-28T05:39:12.887Z,98.70
2022-09-28T05:40:12.926Z,98.60
2022-09-28T05:41:13.054Z,98.50
2022-09-28T05:42:13.113Z,98.40
2022-09-28T05:43:13.344Z,98.20
2022-09-28T05:44:13.637Z,98.20
2022-09-28T05:45:13.931Z,98.00
2022-09-28T05:46:13.411Z,98.20
2022-09-28T05:47:13.648Z,98.20
2022-09-28T05:48:13.652Z,98.40
2022-09-28T05:49:14.978Z,98.20
2022-09-28T05:50:12.970Z,98.10
2022-09-28T05:51:13.161Z,98.00
2022-09-28T05:52:26.036Z,98.20
2022-09-28T05:53:13.034Z,98.20
2022-09-28T05:54:13.122Z,98.10
2022-09-28T05:55:13.008Z,97.90
2022-09-28T05:56:12.846Z,97.60
2022-09-28T05:57:13.817Z,97.60
2022-09-28T05:58:14.002Z,97.90
2022-09-28T05:59:13.039Z,97.90
2022-09-28T06:00:12.990Z,97.90
2022-09-28T06:01:12.850Z,97.70
2022-09-28T06:02:13.879Z,97.30
2022-09-28T06:03:12.916Z,97.40
2022-09-28T06:04:12.888Z,97.60
2022-09-28T06:05:12.854Z,97.30
2022-09-28T06:06:13.808Z,97.30
2022-09-28T06:07:14.203Z,97.00
2022-09-28T06:08:13.263Z,97.00
2022-09-28T06:09:13.505Z,97.20
2022-09-28T06:10:13.423Z,97.00
2022-09-28T06:11:13.599Z,97.00
2022-09-28T06:12:13.606Z,96.80
2022-09-28T06:13:13.530Z,96.50
2022-09-28T06:14:13.986Z,96.20
2022-09-28T06:15:13.006Z,95.60
2022-09-28T06:16:12.972Z,95.60
2022-09-28T06:17:13.094Z,95.60
2022-09-28T06:18:13.348Z,95.40
2022-09-28T06:19:13.483Z,95.30
2022-09-28T06:20:13.638Z,95.30
2022-09-28T06:21:13.587Z,95.20
2022-09-28T06:22:13.473Z,95.50
2022-09-28T06:23:13.334Z,95.50
2022-09-28T06:24:13.373Z,94.90
2022-09-28T06:25:13.383Z,94.90
2022-09-28T06:26:13.328Z,95.10
2022-09-28T06:27:13.313Z,95.10
2022-09-28T06:28:13.245Z,94.90
2022-09-28T06:29:17.313Z,94.80
2022-09-28T06:30:13.317Z,94.90
2022-09-28T06:31:13.254Z,95.10
2022-09-28T06:32:13.148Z,95.00
2022-09-28T06:33:13.015Z,94.70
2022-09-28T06:34:13.007Z,94.60
2022-09-28T06:35:13.114Z,94.40
2022-09-28T06:36:13.021Z,94.50
2022-09-28T06:37:13.012Z,94.10
2022-09-28T06:38:13.067Z,93.80
2022-09-28T06:39:13.004Z,93.60
2022-09-28T06:40:18.076Z,92.80
2022-09-28T06:41:13.146Z,92.90
2022-09-28T06:42:12.971Z,93.20
2022-09-28T06:43:12.909Z,93.30
2022-09-28T06:44:12.797Z,93.10
2022-09-28T06:45:13.819Z,92.60
2022-09-28T06:46:14.030Z,92.70
2022-09-28T06:47:13.330Z,92.20
2022-09-28T06:48:13.292Z,92.00
2022-09-28T06:49:17.302Z,92.50
2022-09-28T06:50:13.487Z,92.80
2022-09-28T06:51:13.379Z,92.30
2022-09-28T06:52:13.935Z,92.20
2022-09-28T06:53:12.934Z,92.80
2022-09-28T06:54:13.231Z,92.60
2022-09-28T06:55:13.423Z,92.50
2022-09-28T06:56:13.357Z,91.70
2022-09-28T06:57:13.313Z,92.20
2022-09-28T06:58:13.364Z,92.10
2022-09-28T06:59:26.230Z,92.10
2022-09-28T07:00:13.320Z,92.10
2022-09-28T07:01:13.650Z,91.60
2022-09-28T07:02:13.916Z,92.00
2022-09-28T07:03:12.977Z,92.00
2022-09-28T07:04:13.200Z,92.30
2022-09-28T07:05:13.447Z,92.00
2022-09-28T07:06:13.443Z,92.70
2022-09-28T07:07:13.464Z,92.50
2022-09-28T07:08:13.630Z,92.50
2022-09-28T07:09:29.158Z,92.10
2022-09-28T07:10:13.063Z,92.70
2022-09-28T07:11:12.862Z,92.40
2022-09-28T07:12:13.939Z,92.00
2022-09-28T07:13:22.948Z,92.40
2022-09-28T07:14:24.954Z,92.40
2022-09-28T07:15:13.475Z,92.40
2022-09-28T07:16:13.471Z,92.60
2022-09-28T07:17:14.594Z,92.70
2022-09-28T07:18:12.895Z,93.00
2022-09-28T07:19:12.832Z,92.90
2022-09-28T07:20:18.847Z,92.80
2022-09-28T07:21:22.976Z,93.50
2022-09-28T07:22:17.465Z,94.10
2022-09-28T07:23:18.915Z,94.80
2022-09-28T07:24:13.996Z,95.10
2022-09-28T07:25:13.033Z,95.30
2022-09-28T07:26:13.030Z,94.40
2022-09-28T07:27:13.005Z,94.40
2022-09-28T07:28:13.123Z,94.40
2022-09-28T07:29:13.286Z,95.00
2022-09-28T07:30:13.348Z,95.80
2022-09-28T07:31:13.409Z,95.60
2022-09-28T07:32:13.731Z,96.00
2022-09-28T07:33:13.631Z,96.00
2022-09-28T07:34:13.608Z,96.10
2022-09-28T07:35:13.609Z,96.40
2022-09-28T07:36:13.888Z,96.70
2022-09-28T07:37:13.891Z,97.20
2022-09-28T07:38:12.780Z,97.00
2022-09-28T07:39:13.719Z,97.20
2022-09-28T07:40:13.770Z,97.10
2022-09-28T07:41:13.667Z,97.10
2022-09-28T07:42:13.966Z,97.20
2022-09-28T07:43:13.025Z,97.10
2022-09-28T07:44:13.520Z,97.30
2022-09-28T07:45:13.438Z,97.50
2022-09-28T07:46:13.418Z,97.40
2022-09-28T07:47:13.553Z,97.20
2022-09-28T07:48:13.651Z,97.80
2022-09-28T07:49:13.874Z,97.60
2022-09-28T07:50:12.891Z,98.00
2022-09-28T07:51:13.820Z,97.60
2022-09-28T07:52:13.879Z,97.80
2022-09-28T07:53:13.717Z,97.80
2022-09-28T07:54:13.649Z,97.70
2022-09-28T07:55:13.581Z,97.50
2022-09-28T07:56:13.541Z,97.50
2022-09-28T07:57:13.456Z,97.80
2022-09-28T07:58:13.791Z,97.60
2022-09-28T07:59:13.707Z,97.30
2022-09-28T08:00:14.631Z,96.90
2022-09-28T08:01:13.901Z,97.30
2022-09-28T08:02:12.921Z,97.40
2022-09-28T08:03:13.741Z,97.60
2022-09-28T08:04:17.943Z,98.00
2022-09-28T08:05:12.995Z,97.50
2022-09-28T08:06:22.915Z,97.30
2022-09-28T08:07:13.257Z,97.00
2022-09-28T08:08:14.672Z,96.70
2022-09-28T08:09:13.652Z,96.50
2022-09-28T08:10:13.683Z,96.60
2022-09-28T08:11:13.667Z,96.90
2022-09-28T08:12:13.871Z,96.80
2022-09-28T08:13:13.799Z,97.10
2022-09-28T08:14:14.016Z,97.30
2022-09-28T08:15:13.005Z,97.40
2022-09-28T08:16:13.279Z,97.40
2022-09-28T08:17:13.502Z,97.80
2022-09-28T08:18:13.750Z,98.00
2022-09-28T08:19:13.788Z,98.30
2022-09-28T08:20:23.731Z,98.30
2022-09-28T08:21:13.716Z,98.60
2022-09-28T08:22:14.074Z,98.10
2022-09-28T08:23:12.987Z,98.30
2022-09-28T08:24:12.849Z,98.60
2022-09-28T08:25:13.750Z,98.50
2022-09-28T08:26:15.588Z,98.40
2022-09-28T08:27:13.890Z,98.00
2022-09-28T08:28:13.829Z,97.80
2022-09-28T08:29:13.773Z,97.90
2022-09-28T08:30:13.643Z,98.10
2022-09-28T08:31:13.606Z,98.30
2022-09-28T08:32:13.570Z,98.10
2022-09-28T08:33:13.978Z,98.20
2022-09-28T08:34:13.172Z,98.30
2022-09-28T08:35:13.023Z,97.90
2022-09-28T08:36:33.097Z,97.60
2022-09-28T08:37:13.149Z,97.50
2022-09-28T08:38:13.114Z,97.90
2022-09-28T08:39:23.378Z,97.90
2022-09-28T08:40:13.294Z,97.80
2022-09-28T08:41:13.158Z,97.40
2022-09-28T08:42:13.712Z,96.70
2022-09-28T08:43:14.062Z,96.70
2022-09-28T08:44:13.096Z,96.70
2022-09-28T08:45:13.026Z,96.30
2022-09-28T08:46:13.001Z,97.00
2022-09-28T08:47:13.017Z,97.50
2022-09-28T08:48:13.250Z,97.20
2022-09-28T08:49:24.877Z,97.50
2022-09-28T08:50:12.806Z,97.60
2022-09-28T08:51:14.073Z,97.40
2022-09-28T08:52:12.984Z,97.10
2022-09-28T08:53:13.034Z,96.70
2022-09-28T08:54:13.041Z,96.80
2022-09-28T08:55:13.382Z,96.60
2022-09-28T08:56:13.426Z,96.20
2022-09-28T08:57:13.557Z,95.90
2022-09-28T08:58:13.551Z,95.90
2022-09-28T08:59:13.511Z,96.30
2022-09-28T09:00:13.466Z,96.50
2022-09-28T09:01:13.459Z,96.30
2022-09-28T09:02:13.538Z,95.90
2022-09-28T09:03:13.764Z,96.10
2022-09-28T09:04:13.879Z,96.30
2022-09-28T09:05:12.828Z,96.00
2022-09-28T09:06:18.195Z,95.80
2022-09-28T09:07:13.499Z,96.40
2022-09-28T09:08:13.430Z,96.40
2022-09-28T09:09:13.481Z,96.20
2022-09-28T09:10:13.505Z,95.80
2022-09-28T09:11:14.293Z,95.20
2022-09-28T09:12:13.475Z,94.70
2022-09-28T09:13:13.447Z,93.60
2022-09-28T09:14:13.482Z,92.40
2022-09-28T09:15:13.635Z,92.90
2022-09-28T09:16:13.653Z,93.70
2022-09-28T09:17:13.681Z,94.20
2022-09-28T09:18:16.651Z,93.60
2022-09-28T09:19:12.981Z,93.50
2022-09-28T09:20:13.084Z,93.20
2022-09-28T09:21:13.187Z,92.80
2022-09-28T09:22:13.531Z,92.90
2022-09-28T09:23:18.827Z,92.90
2022-09-28T09:24:14.228Z,92.20
2022-09-28T09:25:13.169Z,92.50
2022-09-28T09:26:15.016Z,91.80
2022-09-28T09:27:14.139Z,91.90
2022-09-28T09:28:13.014Z,90.70
2022-09-28T09:29:12.988Z,91.20
2022-09-28T09:30:14.284Z,91.70
2022-09-28T09:31:14.028Z,91.10
2022-09-28T09:32:12.940Z,91.20
2022-09-28T09:33:13.296Z,90.60
2022-09-28T09:34:13.259Z,91.00
2022-09-28T09:35:13.523Z,91.30
2022-09-28T09:36:14.262Z,90.50
2022-09-28T09:37:13.292Z,90.70
2022-09-28T09:38:13.307Z,89.50
2022-09-28T09:39:13.501Z,89.20
2022-09-28T09:40:13.485Z,89.30
2022-09-28T09:42:13.785Z,89.20
2022-09-28T09:43:13.665Z,88.80
2022-09-28T09:44:13.839Z,89.30
2022-09-28T09:45:12.767Z,88.60
2022-09-28T09:46:13.853Z,88.60
2022-09-28T09:47:13.888Z,88.50
2022-09-28T09:48:14.137Z,88.90
2022-09-28T09:49:13.072Z,88.30
2022-09-28T09:50:12.967Z,87.90
2022-09-28T09:51:13.283Z,87.80
2022-09-28T09:52:13.467Z,87.30
2022-09-28T09:53:13.529Z,87.20
2022-09-28T09:54:13.677Z,86.90
2022-09-28T09:55:13.542Z,88.10
2022-09-28T09:56:14.571Z,87.40
2022-09-28T09:57:13.445Z,87.30
2022-09-28T09:58:13.372Z,87.80
2022-09-28T09:59:13.435Z,88.80
2022-09-28T10:00:13.573Z,89.40
2022-09-28T10:01:14.323Z,89.00
2022-09-28T10:02:13.372Z,88.80
2022-09-28T10:03:13.471Z,89.50
2022-09-28T10:04:13.616Z,89.30
2022-09-28T10:05:13.761Z,89.70
2022-09-28T10:06:18.960Z,90.20
2022-09-28T10:07:12.924Z,90.10
2022-09-28T10:08:12.912Z,89.20
2022-09-28T10:09:13.046Z,90.00
2022-09-28T10:10:13.240Z,88.60
2022-09-28T10:11:13.467Z,88.20
2022-09-28T10:12:13.480Z,87.60
2022-09-28T10:13:13.472Z,87.00
2022-09-28T10:14:13.535Z,85.10
2022-09-28T10:15:13.489Z,84.70
2022-09-28T10:16:13.468Z,84.50
2022-09-28T10:17:13.435Z,84.60
2022-09-28T10:18:13.605Z,84.40
2022-09-28T10:19:13.724Z,83.50
2022-09-28T10:20:13.985Z,83.90
2022-09-28T10:21:13.181Z,81.80
2022-09-28T10:22:13.238Z,79.60
2022-09-28T10:23:13.163Z,78.20
2022-09-28T10:24:12.953Z,76.50
2022-09-28T10:25:17.981Z,77.60
2022-09-28T10:26:33.160Z,77.70
2022-09-28T10:27:13.063Z,78.40
2022-09-28T10:28:13.015Z,78.50
2022-09-28T10:29:13.220Z,78.80
2022-09-28T10:30:13.312Z,78.50
2022-09-28T10:31:13.545Z,79.00
2022-09-28T10:32:13.605Z,79.70
2022-09-28T10:33:13.742Z,78.80
2022-09-28T10:34:13.705Z,79.20
2022-09-28T10:35:18.849Z,79.30
2022-09-28T10:36:14.019Z,78.00
2022-09-28T10:37:12.935Z,76.90
2022-09-28T10:38:12.773Z,76.60
2022-09-28T10:39:14.523Z,74.50
2022-09-28T10:40:13.552Z,74.90
2022-09-28T10:41:13.575Z,75.20
2022-09-28T10:42:13.841Z,73.70
2022-09-28T10:43:13.953Z,72.20
2022-09-28T10:44:12.783Z,73.30
2022-09-28T10:45:13.732Z,73.10
2022-09-28T10:46:13.693Z,74.80
2022-09-28T10:47:13.813Z,75.70
2022-09-28T10:48:13.753Z,76.90
2022-09-28T10:49:13.833Z,77.10
2022-09-28T10:50:13.900Z,75.90
2022-09-28T10:51:12.900Z,77.80
2022-09-28T10:52:13.237Z,76.20
2022-09-28T10:53:13.560Z,76.50
2022-09-28T10:54:13.346Z,75.80
2022-09-28T10:55:13.182Z,75.00
2022-09-28T10:56:13.079Z,74.30
2022-09-28T10:57:13.584Z,73.20
2022-09-28T10:58:13.890Z,74.50
2022-09-28T10:59:14.202Z,72.90
2022-09-28T11:00:13.018Z,72.40
2022-09-28T11:01:13.092Z,72.30
2022-09-28T11:02:13.064Z,72.80
2022-09-28T11:03:18.155Z,71.60
2022-09-28T11:04:13.146Z,71.90
2022-09-28T11:05:13.253Z,70.70
2022-09-28T11:06:13.263Z,71.40
2022-09-28T11:07:15.340Z,68.90
2022-09-28T11:08:18.296Z,70.20
2022-09-28T11:09:25.372Z,69.60
2022-09-28T11:10:32.349Z,69.20
2022-09-28T11:11:13.403Z,69.00
2022-09-28T11:12:30.426Z,69.10
2022-09-28T11:13:14.967Z,69.00
2022-09-28T11:14:13.203Z,70.00
2022-09-28T11:16:18.891Z,70.10
2022-09-28T11:17:13.158Z,70.70
2022-09-28T11:18:14.492Z,70.40
2022-09-28T11:19:13.712Z,70.60
2022-09-28T11:20:20.630Z,71.10
2022-09-28T11:21:14.182Z,71.30
2022-09-28T11:22:14.045Z,71.70
2022-09-28T11:23:13.305Z,71.40
2022-09-28T11:24:18.168Z,71.80
2022-09-28T11:25:31.866Z,71.50
2022-09-28T11:26:29.882Z,71.90
2022-09-28T11:27:12.756Z,71.70
2022-09-28T11:29:32.021Z,72.50
2022-09-28T11:30:14.931Z,72.20
2022-09-28T11:31:12.910Z,72.40
2022-09-28T11:32:17.957Z,71.30
2022-09-28T11:33:13.037Z,72.80
2022-09-28T11:34:13.121Z,72.40
2022-09-28T11:35:13.204Z,73.30
2022-09-28T11:36:14.895Z,75.20
2022-09-28T11:37:13.236Z,74.70
2022-09-28T11:38:18.411Z,75.00
2022-09-28T11:39:13.724Z,74.50
2022-09-28T11:40:39.850Z,74.40
2022-09-28T11:41:12.805Z,74.10
2022-09-28T11:42:23.782Z,74.30
2022-09-28T11:43:15.984Z,74.30
2022-09-28T11:44:28.222Z,73.60
2022-09-28T11:45:13.464Z,72.50
2022-09-28T11:46:13.828Z,73.10
2022-09-28T11:47:13.000Z,73.50
2022-09-28T11:48:12.845Z,73.00
2022-09-28T11:49:18.693Z,73.40
2022-09-28T11:50:13.600Z,73.90
2022-09-28T11:51:15.771Z,74.40
2022-09-28T11:52:52.052Z,73.60
2022-09-28T11:53:13.192Z,74.10
2022-09-28T11:54:13.191Z,73.70
2022-09-28T11:56:13.000Z,74.20
2022-09-28T11:57:13.570Z,74.10
2022-09-28T11:58:13.640Z,74.30
2022-09-28T11:59:25.456Z,74.20
2022-09-28T12:00:13.402Z,73.70
2022-09-28T12:01:18.606Z,74.00
2022-09-28T12:02:13.082Z,74.50
2022-09-28T12:03:18.199Z,74.60
2022-09-28T12:04:57.312Z,74.90
2022-09-28T12:05:18.424Z,75.00
2022-09-28T12:06:13.789Z,74.20
2022-09-28T12:07:13.820Z,73.70
2022-09-28T12:08:14.015Z,74.30
2022-09-28T12:09:12.920Z,73.40
2022-09-28T12:10:13.079Z,72.90
2022-09-28T12:11:14.773Z,71.70
2022-09-28T12:12:13.771Z,70.90
2022-09-28T12:13:18.629Z,69.80
2022-09-28T12:14:13.754Z,67.10
2022-09-28T12:15:13.742Z,66.00
2022-09-28T12:16:32.625Z,66.00
2022-09-28T12:17:17.902Z,65.10
2022-09-28T12:18:13.334Z,65.10
2022-09-28T12:19:13.401Z,63.60
2022-09-28T12:20:13.286Z,66.50
2022-09-28T12:21:13.482Z,63.70
2022-09-28T12:22:13.468Z,64.30
2022-09-28T12:23:13.740Z,64.90
2022-09-28T12:24:13.664Z,66.30
2022-09-28T12:25:13.586Z,66.10
2022-09-28T12:26:13.616Z,66.90
2022-09-28T12:27:13.685Z,66.20
2022-09-28T12:28:13.833Z,65.50
2022-09-28T12:29:13.890Z,64.90
2022-09-28T12:30:14.348Z,64.40
2022-09-28T12:31:13.466Z,65.00
2022-09-28T12:32:13.594Z,64.50
2022-09-28T12:33:19.511Z,66.40
2022-09-28T12:34:13.472Z,66.00
2022-09-28T12:35:13.422Z,67.60
2022-09-28T12:36:13.505Z,67.40
2022-09-28T12:37:18.749Z,67.20
2022-09-28T12:38:13.757Z,68.00
2022-09-28T12:39:30.867Z,67.80
2022-09-28T12:40:13.065Z,67.80
2022-09-28T12:41:13.153Z,68.50
2022-09-28T12:42:13.029Z,69.20
2022-09-28T12:43:13.166Z,70.20
2022-09-28T12:46:13.579Z,72.50
2022-09-28T12:47:13.934Z,72.90
2022-09-28T12:48:13.032Z,75.10
2022-09-28T12:50:38.173Z,77.50
2022-09-28T12:51:13.119Z,77.20
2022-09-28T12:52:19.649Z,78.40
2022-09-28T12:53:23.819Z,78.90
2022-09-28T12:56:15.712Z,80.10
2022-09-28T12:57:13.382Z,81.00
2022-09-28T12:58:13.661Z,81.80
2022-09-28T12:59:14.150Z,81.40
2022-09-28T13:00:18.400Z,82.00
2022-09-28T13:01:13.598Z,83.10